createdAt,value
2022-10-18T00:02:26.702Z,35.13
2022-10-18T00:04:53.814Z,33.03
2022-10-18T00:07:21.032Z,36.67
2022-10-18T00:09:47.985Z,34.25
2022-10-18T00:12:15.141Z,33.03
2022-10-18T00:14:42.177Z,31.35
2022-10-18T00:17:09.449Z,30.08
2022-10-18T00:19:36.388Z,30.55
2022-10-18T00:22:03.675Z,32.13
2022-10-18T00:24:30.678Z,34.65
2022-10-18T00:26:57.882Z,34.30
2022-10-18T00:29:24.918Z,33.50
2022-10-18T00:31:52.182Z,30.10
2022-10-18T00:34:19.140Z,30.65
2022-10-18T00:36:46.309Z,32.17
2022-10-18T00:39:18.378Z,29.90
2022-10-18T00:41:46.464Z,34.20
2022-10-18T00:44:13.381Z,36.15
2022-10-18T00:46:43.034Z,38.00
2022-10-18T00:49:19.067Z,34.42
2022-10-18T00:52:02.619Z,36.67
2022-10-18T00:54:32.062Z,37.03
2022-10-18T00:56:59.484Z,38.08
2022-10-18T00:59:27.170Z,40.20
2022-10-18T01:01:54.431Z,37.60
2022-10-18T01:04:22.766Z,35.67
2022-10-18T01:07:10.560Z,39.20
2022-10-18T01:09:49.558Z,42.33
2022-10-18T01:12:40.996Z,41.28
2022-10-18T01:15:18.308Z,40.03
2022-10-18T01:17:51.276Z,41.97
2022-10-18T01:20:41.049Z,45.25
2022-10-18T01:23:13.193Z,39.70
2022-10-18T01:25:46.214Z,43.45
2022-10-18T01:28:38.589Z,37.08
2022-10-18T01:31:11.887Z,35.97
2022-10-18T01:33:39.082Z,43.10
2022-10-18T01:36:19.904Z,41.95
2022-10-18T01:38:49.683Z,42.47
2022-10-18T01:41:18.835Z,46.05
2022-10-18T01:43:47.877Z,34.92
2022-10-18T01:46:18.845Z,41.60
2022-10-18T01:48:46.968Z,43.75
2022-10-18T01:51:14.096Z,41.55
2022-10-18T01:53:41.375Z,45.45
2022-10-18T01:56:17.280Z,111.32
2022-10-18T01:58:55.266Z,133.75
2022-10-18T02:01:25.291Z,103.43
2022-10-18T02:03:58.035Z,97.35
2022-10-18T02:06:32.331Z,66.10
2022-10-18T02:09:39.571Z,60.67
2022-10-18T02:12:10.998Z,51.47
2022-10-18T02:14:39.707Z,44.00
2022-10-18T02:17:09.531Z,43.30
2022-10-18T02:19:43.956Z,42.72
2022-10-18T02:22:12.145Z,42.42
2022-10-18T02:24:48.263Z,40.78
2022-10-18T02:27:15.480Z,43.30
2022-10-18T02:29:44.091Z,42.50
2022-10-18T02:32:22.818Z,49.45
2022-10-18T02:34:58.562Z,47.08
2022-10-18T02:37:30.761Z,48.95
2022-10-18T02:39:58.243Z,49.40
2022-10-18T02:42:25.210Z,44.38
2022-10-18T02:44:52.378Z,50.42
2022-10-18T02:47:19.477Z,47.72
2022-10-18T02:49:46.662Z,50.65
2022-10-18T02:52:13.605Z,44.75
2022-10-18T02:54:40.961Z,45.70
2022-10-18T02:57:08.590Z,43.10
2022-10-18T02:59:35.714Z,49.45
2022-10-18T03:02:02.671Z,47.60
2022-10-18T03:04:29.903Z,48.67
2022-10-18T03:06:57.008Z,43.90
2022-10-18T03:09:24.304Z,46.28
2022-10-18T03:11:51.246Z,46.53
2022-10-18T03:14:18.459Z,47.25
2022-10-18T03:16:45.437Z,47.33
2022-10-18T03:19:12.645Z,52.75
2022-10-18T03:21:39.650Z,53.08
2022-10-18T03:24:07.150Z,74.00
2022-10-18T03:26:34.101Z,62.25
2022-10-18T03:29:01.511Z,53.90
2022-10-18T03:31:28.802Z,87.25
2022-10-18T03:33:56.109Z,58.30
2022-10-18T03:36:23.072Z,52.20
2022-10-18T03:38:50.432Z,105.28
2022-10-18T03:41:17.530Z,73.90
2022-10-18T03:43:44.724Z,76.20
2022-10-18T03:46:11.737Z,69.05
2022-10-18T03:48:39.119Z,55.55
2022-10-18T03:51:06.084Z,60.10
2022-10-18T03:53:33.304Z,82.95
2022-10-18T03:56:00.292Z,91.70
2022-10-18T03:58:27.554Z,56.83
2022-10-18T04:00:55.478Z,53.72
2022-10-18T04:03:23.469Z,57.10
2022-10-18T04:05:51.008Z,59.38
2022-10-18T04:08:18.888Z,57.47
2022-10-18T04:10:46.550Z,54.08
2022-10-18T04:13:14.077Z,55.92
2022-10-18T04:15:41.060Z,55.10
2022-10-18T04:18:08.194Z,58.75
2022-10-18T04:20:35.228Z,57.58
2022-10-18T04:23:02.433Z,64.00
2022-10-18T04:25:29.531Z,64.70
2022-10-18T04:27:56.824Z,63.88
2022-10-18T04:30:23.830Z,75.53
2022-10-18T04:32:51.067Z,76.43
2022-10-18T04:35:18.254Z,73.22
2022-10-18T04:37:45.426Z,56.47
2022-10-18T04:40:12.797Z,55.50
2022-10-18T04:42:40.007Z,50.10
2022-10-18T04:45:07.599Z,52.67
2022-10-18T04:47:35.123Z,55.70
2022-10-18T04:50:02.203Z,68.40
2022-10-18T04:52:29.405Z,94.40
2022-10-18T04:54:59.173Z,106.90
2022-10-18T04:57:26.533Z,165.88
2022-10-18T04:59:53.492Z,132.25
2022-10-18T05:02:20.681Z,104.80
2022-10-18T05:04:47.636Z,108.95
2022-10-18T05:07:14.927Z,108.03
2022-10-18T05:09:41.923Z,94.10
2022-10-18T05:12:09.110Z,71.03
2022-10-18T05:14:36.161Z,78.38
2022-10-18T05:17:03.472Z,80.22
2022-10-18T05:19:30.842Z,76.32
2022-10-18T05:21:58.011Z,62.97
2022-10-18T05:24:27.635Z,59.92
2022-10-18T05:26:55.139Z,57.58
2022-10-18T05:29:22.403Z,66.20
2022-10-18T05:31:50.347Z,62.83
2022-10-18T05:34:18.100Z,64.50
2022-10-18T05:36:45.431Z,56.17
2022-10-18T05:39:12.396Z,62.72
2022-10-18T05:41:42.429Z,62.30
2022-10-18T05:44:09.669Z,67.35
2022-10-18T05:46:37.321Z,67.28
2022-10-18T05:49:04.410Z,68.78
2022-10-18T05:51:31.833Z,61.58
2022-10-18T05:53:58.934Z,61.03
2022-10-18T05:56:26.231Z,58.92
2022-10-18T05:58:53.506Z,63.08
2022-10-18T06:01:20.775Z,59.85
2022-10-18T06:03:48.250Z,65.97
2022-10-18T06:06:15.640Z,52.45
2022-10-18T06:08:44.166Z,56.42
2022-10-18T06:11:14.239Z,52.97
2022-10-18T06:13:46.133Z,52.28
2022-10-18T06:16:15.583Z,46.83
2022-10-18T06:18:42.845Z,43.53
2022-10-18T06:21:10.321Z,46.38
2022-10-18T06:23:37.415Z,48.92
2022-10-18T06:26:07.225Z,52.10
2022-10-18T06:28:35.805Z,53.08
2022-10-18T06:31:04.044Z,45.08
2022-10-18T06:33:31.991Z,49.42
2022-10-18T06:36:05.179Z,48.42
2022-10-18T06:38:33.064Z,48.10
2022-10-18T06:41:00.485Z,47.97
2022-10-18T06:43:27.920Z,43.58
2022-10-18T06:45:55.198Z,42.40
2022-10-18T06:48:22.996Z,47.63
2022-10-18T06:50:58.884Z,49.85
2022-10-18T06:53:27.465Z,44.83
2022-10-18T06:56:06.018Z,42.47
2022-10-18T06:58:33.631Z,44.50
2022-10-18T07:01:18.218Z,49.33
2022-10-18T07:03:47.947Z,46.47
2022-10-18T07:06:18.306Z,49.22
2022-10-18T07:08:46.745Z,46.15
2022-10-18T07:11:20.481Z,41.35
2022-10-18T07:13:48.396Z,39.97
2022-10-18T07:16:18.868Z,44.40
2022-10-18T07:18:49.472Z,47.13
2022-10-18T07:21:22.020Z,67.50
2022-10-18T07:23:49.937Z,50.17
2022-10-18T07:26:18.542Z,84.30
2022-10-18T07:28:49.375Z,131.23
2022-10-18T07:31:17.889Z,145.77
2022-10-18T07:33:48.047Z,81.40
2022-10-18T07:36:15.348Z,96.20
2022-10-18T07:38:45.410Z,80.85
2022-10-18T07:41:14.170Z,70.57
2022-10-18T07:43:48.692Z,103.53
2022-10-18T07:48:43.861Z,57.53
2022-10-18T07:51:12.880Z,64.70
2022-10-18T07:53:39.868Z,99.70
2022-10-18T07:56:11.862Z,75.68
2022-10-18T07:58:38.850Z,72.32
2022-10-18T08:05:43.541Z,38.13
2022-10-18T08:21:50.828Z,41.45
2022-10-18T08:34:23.577Z,38.15
2022-10-18T08:37:19.753Z,38.92
2022-10-18T08:39:48.118Z,34.42
2022-10-18T08:42:34.447Z,38.95
2022-10-18T08:45:12.695Z,37.05
2022-10-18T08:47:51.180Z,45.55
2022-10-18T08:50:31.751Z,38.17
2022-10-18T08:53:26.855Z,40.28
2022-10-18T08:56:05.783Z,43.08
2022-10-18T08:58:33.639Z,44.72
2022-10-18T09:01:24.059Z,45.53
2022-10-18T09:04:28.752Z,48.20
2022-10-18T09:07:01.752Z,40.88
2022-10-18T09:09:46.581Z,68.53
2022-10-18T09:12:22.635Z,172.00
2022-10-18T09:14:56.902Z,72.53
2022-10-18T09:17:26.816Z,80.03
2022-10-18T09:20:11.727Z,59.40
2022-10-18T09:22:53.007Z,55.10
2022-10-18T09:25:22.762Z,41.42
2022-10-18T09:28:15.056Z,68.90
2022-10-18T09:31:12.712Z,44.20
2022-10-18T09:33:56.348Z,50.25
2022-10-18T09:36:35.369Z,40.88
2022-10-18T09:39:18.893Z,56.35
2022-10-18T09:41:51.596Z,34.22
2022-10-18T09:44:27.414Z,37.53
2022-10-18T09:47:09.296Z,61.88
2022-10-18T09:49:45.608Z,41.05
2022-10-18T09:55:02.285Z,50.58
2022-10-18T09:57:44.331Z,57.80
2022-10-18T10:00:24.455Z,57.47
2022-10-18T10:02:51.768Z,50.50
2022-10-18T10:05:19.800Z,42.85
2022-10-18T10:07:48.533Z,43.08
2022-10-18T10:10:24.557Z,39.67
2022-10-18T10:13:07.506Z,41.30
2022-10-18T10:15:38.212Z,43.80
2022-10-18T10:18:30.993Z,42.40
2022-10-18T10:21:00.918Z,49.33
2022-10-18T10:23:38.873Z,46.70
2022-10-18T10:26:34.341Z,38.40
2022-10-18T10:29:01.748Z,36.47
2022-10-18T10:31:33.674Z,40.72
2022-10-18T10:34:12.836Z,40.10
2022-10-18T10:36:54.324Z,34.67
2022-10-18T10:39:24.335Z,31.38
2022-10-18T10:41:56.654Z,36.28
2022-10-18T10:44:27.480Z,36.40
2022-10-18T10:46:55.144Z,38.60
2022-10-18T10:49:39.525Z,31.17
2022-10-18T10:52:26.744Z,35.28
2022-10-18T10:55:05.798Z,45.30
2022-10-18T10:57:33.152Z,35.28
2022-10-18T11:00:00.490Z,37.40
2022-10-18T11:02:35.531Z,44.03
2022-10-18T11:05:27.365Z,44.25
2022-10-18T11:08:01.952Z,42.72
2022-10-18T11:13:24.137Z,29.58
2022-10-18T11:15:59.389Z,30.00
2022-10-18T11:18:37.603Z,33.38
2022-10-18T11:21:23.557Z,29.83
2022-10-18T11:23:50.919Z,27.30
2022-10-18T11:26:41.076Z,30.80
2022-10-18T11:29:28.384Z,32.10
2022-10-18T11:32:08.401Z,34.47
2022-10-18T11:35:04.112Z,38.65
2022-10-18T11:37:59.926Z,37.08
2022-10-18T11:40:45.709Z,39.75
2022-10-18T11:43:57.241Z,51.55
2022-10-18T11:46:54.463Z,43.00
2022-10-18T11:49:28.055Z,42.80
2022-10-18T11:52:20.413Z,33.63
2022-10-18T11:55:00.066Z,34.45
2022-10-18T11:57:49.993Z,31.73
2022-10-18T12:00:53.214Z,32.78
2022-10-18T12:03:25.340Z,32.40
2022-10-18T12:05:55.684Z,31.65
2022-10-18T12:08:44.415Z,31.05
2022-10-18T12:11:23.236Z,21.13
2022-10-18T12:14:03.293Z,24.48
2022-10-18T12:17:07.800Z,16.38
2022-10-18T12:19:27.799Z,18.33
2022-10-18T12:22:13.412Z,13.80
2022-10-18T12:24:42.092Z,18.40
2022-10-18T12:27:13.801Z,38.90
2022-10-18T12:29:56.346Z,50.33
2022-10-18T12:32:31.418Z,29.23
2022-10-18T12:35:03.345Z,38.42
2022-10-18T12:37:55.265Z,28.67
2022-10-18T12:40:40.696Z,24.52
2022-10-18T12:43:16.033Z,20.85
2022-10-18T12:45:56.095Z,20.70
2022-10-18T12:48:30.999Z,19.40
2022-10-18T12:51:04.592Z,27.02
2022-10-18T12:53:32.980Z,23.63
2022-10-18T12:56:28.921Z,21.55
2022-10-18T12:59:19.585Z,15.63
2022-10-18T13:01:53.165Z,22.17
2022-10-18T13:04:32.266Z,21.05
2022-10-18T13:07:05.296Z,21.38
2022-10-18T13:09:39.349Z,17.52
2022-10-18T13:12:13.049Z,18.80
2022-10-18T13:15:25.910Z,19.33
2022-10-18T13:18:06.476Z,18.85
2022-10-18T13:21:05.508Z,25.50
2022-10-18T13:23:38.592Z,19.25
2022-10-18T13:26:23.506Z,20.85
2022-10-18T13:29:09.050Z,15.15
2022-10-18T13:31:52.690Z,24.58
2022-10-18T13:34:34.974Z,21.38
2022-10-18T13:37:03.830Z,15.25
2022-10-18T13:39:32.479Z,21.75
2022-10-18T13:42:00.713Z,27.63
2022-10-18T13:44:30.511Z,23.83
2022-10-18T13:46:57.744Z,26.58
2022-10-18T13:49:39.548Z,25.27
2022-10-18T13:52:33.181Z,19.95
2022-10-18T13:55:37.054Z,23.00
2022-10-18T13:58:32.304Z,28.90
2022-10-18T14:01:38.959Z,18.38
2022-10-18T14:04:29.372Z,17.10
2022-10-18T14:07:04.517Z,22.38
2022-10-18T14:09:45.274Z,20.60
2022-10-18T14:12:39.691Z,20.40
2022-10-18T14:15:23.973Z,23.30
2022-10-18T14:17:57.920Z,17.20
2022-10-18T14:20:55.264Z,69.30
2022-10-18T14:23:44.927Z,42.58
2022-10-18T14:26:15.856Z,78.20
2022-10-18T14:29:00.258Z,66.18
2022-10-18T14:31:30.612Z,68.00
2022-10-18T14:34:00.636Z,70.68
2022-10-18T14:36:40.039Z,42.38
2022-10-18T14:39:18.961Z,36.75
2022-10-18T14:41:55.659Z,29.65
2022-10-18T14:44:31.449Z,26.75
2022-10-18T14:47:14.587Z,26.98
2022-10-18T14:49:45.924Z,27.42
2022-10-18T14:52:18.475Z,25.70
2022-10-18T14:54:46.300Z,37.17
2022-10-18T14:57:23.541Z,35.20
2022-10-18T14:59:58.220Z,29.52
2022-10-18T15:05:10.117Z,34.80
2022-10-18T15:07:38.190Z,29.13
2022-10-18T15:10:06.528Z,32.88
2022-10-18T15:12:37.111Z,23.33
2022-10-18T15:15:27.704Z,27.98
2022-10-18T15:17:55.432Z,33.15
2022-10-18T15:20:26.738Z,37.13
2022-10-18T15:22:55.047Z,38.13
2022-10-18T15:25:31.538Z,35.83
2022-10-18T15:28:00.302Z,26.08
2022-10-18T15:30:30.411Z,34.55
2022-10-18T15:33:00.926Z,36.50
2022-10-18T15:35:31.000Z,40.30
2022-10-18T15:38:03.781Z,45.42
2022-10-18T15:40:36.293Z,50.80
2022-10-18T15:43:25.417Z,43.92
2022-10-18T15:46:05.125Z,137.93
2022-10-18T15:48:40.443Z,113.47
2022-10-18T15:51:28.364Z,103.75
2022-10-18T15:53:55.595Z,77.88
2022-10-18T15:56:28.818Z,86.72
2022-10-18T15:58:58.235Z,78.93
2022-10-18T16:01:41.839Z,83.70
2022-10-18T16:04:25.423Z,75.43
2022-10-18T16:06:54.198Z,54.47
2022-10-18T16:09:23.945Z,59.03
2022-10-18T16:11:56.405Z,61.13
2022-10-18T16:14:25.848Z,91.63
2022-10-18T16:16:56.294Z,91.45
2022-10-18T16:19:24.187Z,53.97
2022-10-18T16:21:52.695Z,56.83
2022-10-18T16:24:21.204Z,64.85
2022-10-18T16:26:48.613Z,61.65
2022-10-18T16:29:24.376Z,64.57
2022-10-18T16:31:53.569Z,86.25
2022-10-18T16:34:20.806Z,64.85
2022-10-18T16:36:47.820Z,78.68
2022-10-18T16:39:17.726Z,77.88
2022-10-18T16:41:45.298Z,59.58
2022-10-18T16:44:14.084Z,51.83
2022-10-18T16:46:41.343Z,66.07
2022-10-18T16:51:53.907Z,56.05
2022-10-18T16:54:24.089Z,63.08
2022-10-18T16:56:51.284Z,149.25
2022-10-18T16:59:29.515Z,95.35
2022-10-18T17:01:56.838Z,88.32
2022-10-18T17:04:24.203Z,72.25
2022-10-18T17:06:53.833Z,85.97
2022-10-18T17:09:21.046Z,113.10
2022-10-18T17:11:50.107Z,87.50
2022-10-18T17:14:17.412Z,92.25
2022-10-18T17:16:47.077Z,118.75
2022-10-18T17:19:18.014Z,99.03
2022-10-18T17:21:44.992Z,78.78
2022-10-18T17:24:12.363Z,62.33
2022-10-18T17:26:39.853Z,52.83
2022-10-18T17:29:08.380Z,57.00
2022-10-18T17:31:35.903Z,45.95
2022-10-18T17:34:03.498Z,64.13
2022-10-18T17:36:31.818Z,52.15
2022-10-18T17:38:59.218Z,59.70
2022-10-18T17:41:29.050Z,79.72
2022-10-18T17:43:56.334Z,75.28
2022-10-18T17:46:23.791Z,54.25
2022-10-18T17:48:51.252Z,61.30
2022-10-18T17:51:18.660Z,59.85
2022-10-18T17:53:46.585Z,50.92
2022-10-18T17:56:14.568Z,51.13
2022-10-18T17:58:45.670Z,46.47
2022-10-18T18:01:15.314Z,40.72
2022-10-18T18:03:43.176Z,44.50
2022-10-18T18:06:30.808Z,41.95
2022-10-18T18:09:00.490Z,49.50
2022-10-18T18:11:29.437Z,52.00
2022-10-18T18:13:57.490Z,52.80
2022-10-18T18:16:27.552Z,43.88
2022-10-18T18:18:57.477Z,52.03
2022-10-18T18:21:25.806Z,58.83
2022-10-18T18:23:56.475Z,48.50
2022-10-18T18:26:24.089Z,54.20
2022-10-18T18:28:51.501Z,43.42
2022-10-18T18:31:23.697Z,50.88
2022-10-18T18:33:58.356Z,52.90
2022-10-18T18:36:28.978Z,70.50
2022-10-18T18:38:57.785Z,73.65
2022-10-18T18:41:26.571Z,39.28
2022-10-18T18:43:57.086Z,43.78
2022-10-18T18:46:26.065Z,50.33
2022-10-18T18:48:54.427Z,69.80
2022-10-18T18:51:22.477Z,54.47
2022-10-18T18:53:52.369Z,47.42
2022-10-18T18:56:24.962Z,46.33
2022-10-18T18:58:53.392Z,51.90
2022-10-18T19:01:23.608Z,44.90
2022-10-18T19:03:52.934Z,51.03
2022-10-18T19:06:41.331Z,47.20
2022-10-18T19:09:21.637Z,50.45
2022-10-18T19:11:54.402Z,51.72
2022-10-18T19:14:24.931Z,64.50
2022-10-18T19:16:54.780Z,100.35
2022-10-18T19:19:27.462Z,86.00
2022-10-18T19:21:56.871Z,60.42
2022-10-18T19:24:25.497Z,52.90
2022-10-18T19:27:05.655Z,49.42
2022-10-18T19:29:35.975Z,59.17
2022-10-18T19:32:07.322Z,66.78
2022-10-18T19:34:35.179Z,58.80
2022-10-18T19:37:02.339Z,60.47
2022-10-18T19:39:33.915Z,63.40
2022-10-18T19:42:03.535Z,48.85
2022-10-18T19:44:33.112Z,55.50
2022-10-18T19:47:00.590Z,47.90
2022-10-18T19:49:30.770Z,43.78
2022-10-18T19:51:58.186Z,49.83
2022-10-18T19:54:29.367Z,49.17
2022-10-18T19:56:56.421Z,33.63
2022-10-18T19:59:24.711Z,37.53
2022-10-18T20:01:51.783Z,35.95
2022-10-18T20:04:19.038Z,25.95
2022-10-18T20:06:46.444Z,25.65
2022-10-18T20:09:17.742Z,25.60
2022-10-18T20:11:47.746Z,31.20
2022-10-18T20:14:15.043Z,31.40
2022-10-18T20:16:42.194Z,25.95
2022-10-18T20:19:10.584Z,34.00
2022-10-18T20:21:37.629Z,27.67
2022-10-18T20:24:05.625Z,27.85
2022-10-18T20:26:34.590Z,26.92
2022-10-18T20:29:02.230Z,27.88
2022-10-18T20:31:31.707Z,24.83
2022-10-18T20:34:01.633Z,38.45
2022-10-18T20:36:30.510Z,49.38
2022-10-18T20:38:58.233Z,46.00
2022-10-18T20:41:31.497Z,41.30
2022-10-18T20:44:01.455Z,50.67
2022-10-18T20:46:34.226Z,50.92
2022-10-18T20:49:01.852Z,39.55
2022-10-18T20:51:29.249Z,35.70
2022-10-18T20:53:56.709Z,39.50
2022-10-18T20:56:27.166Z,36.42
2022-10-18T20:58:56.663Z,35.45
2022-10-18T21:01:29.790Z,31.90
2022-10-18T21:03:59.944Z,30.73
2022-10-18T21:06:35.423Z,42.97
2022-10-18T21:09:06.131Z,36.92
2022-10-18T21:11:37.332Z,31.55
2022-10-18T21:14:05.500Z,36.10
2022-10-18T21:16:35.235Z,28.17
2022-10-18T21:19:08.539Z,32.13
2022-10-18T21:21:35.563Z,31.83
2022-10-18T21:24:06.957Z,39.00
2022-10-18T21:26:35.723Z,45.88
2022-10-18T21:29:04.306Z,55.75
2022-10-18T21:31:34.721Z,51.03
2022-10-18T21:34:07.396Z,39.78
2022-10-18T21:36:36.878Z,43.47
2022-10-18T21:39:06.388Z,27.20
2022-10-18T21:41:34.359Z,32.22
2022-10-18T21:44:04.511Z,32.72
2022-10-18T21:46:34.048Z,33.80
2022-10-18T21:49:01.436Z,33.17
2022-10-18T21:51:28.963Z,27.13
2022-10-18T21:53:57.904Z,23.00
2022-10-18T21:56:27.734Z,32.83
2022-10-18T21:58:56.140Z,38.10
2022-10-18T22:01:29.570Z,29.17
2022-10-18T22:03:57.266Z,26.38
2022-10-18T22:06:25.584Z,23.17
2022-10-18T22:08:55.489Z,24.38
2022-10-18T22:11:25.728Z,25.77
2022-10-18T22:13:53.859Z,26.75
2022-10-18T22:16:21.204Z,30.95
2022-10-18T22:18:49.595Z,24.35
2022-10-18T22:21:18.709Z,24.90
2022-10-18T22:23:48.374Z,28.35
2022-10-18T22:26:19.601Z,32.35
2022-10-18T22:28:47.807Z,32.30
2022-10-18T22:31:20.739Z,34.72
2022-10-18T22:33:56.244Z,31.20
2022-10-18T22:36:23.559Z,30.45
2022-10-18T22:38:50.808Z,31.20
2022-10-18T22:41:18.172Z,30.02
2022-10-18T22:43:45.656Z,27.10
2022-10-18T22:46:14.149Z,30.50
2022-10-18T22:48:42.148Z,35.60
2022-10-18T22:51:10.048Z,59.55
2022-10-18T22:53:39.105Z,54.60
2022-10-18T22:56:06.941Z,34.38
2022-10-18T22:58:34.466Z,37.20
2022-10-18T23:01:07.321Z,37.08
2022-10-18T23:03:35.341Z,33.35
2022-10-18T23:06:02.969Z,44.00
2022-10-18T23:08:32.243Z,40.72
2022-10-18T23:11:00.285Z,43.75
2022-10-18T23:13:28.355Z,32.03
2022-10-18T23:16:04.798Z,32.38
2022-10-18T23:18:33.154Z,29.90
2022-10-18T23:21:04.754Z,32.67
2022-10-18T23:23:35.507Z,29.75
2022-10-18T23:26:08.427Z,24.83
2022-10-18T23:28:37.124Z,29.33
2022-10-18T23:31:09.638Z,37.72
2022-10-18T23:33:37.348Z,33.08
2022-10-18T23:36:06.349Z,28.02
2022-10-18T23:38:34.458Z,30.70
2022-10-18T23:41:01.619Z,35.78
2022-10-18T23:43:28.918Z,27.27
2022-10-18T23:45:56.012Z,30.20
2022-10-18T23:48:23.403Z,29.30
2022-10-18T23:50:50.361Z,28.77
2022-10-18T23:53:21.666Z,22.05
2022-10-18T23:56:10.232Z,29.25
2022-10-18T23:58:38.459Z,32.10
